Time;durP1;ratioP1;P1;durP2;ratioP2;P2;SDS_P1;SDS_P2;PMS_P1;PMS_P2;Temp;Humidity;BMP_temperature;BMP_pressure;BME280_temperature;BME280_humidity;BME280_pressure;Samples;Min_cycle;Max_cycle;Signal;HPM_P1;HPM_P2
2022/12/02 00:00:47;;;;;;;;;;;;;;;18.86;58.52;98784.97;2070933;28;20049;-46
2022/12/02 00:01:48;;;;;;;16.58;10.07;;;;;;;18.89;58.53;98781.88;2070313;28;19928;-47
2022/12/02 00:02:50;;;;;;;;;;;;;;;18.79;58.50;98778.75;2071589;28;20057;-46
2022/12/02 00:03:51;;;;;;;17.58;9.25;;;;;;;18.84;58.56;98773.59;2068662;28;21159;-49
2022/12/02 00:04:55;;;;;;;;;;;;;;;18.74;58.46;98778.50;2070082;28;20058;-47
2022/12/02 00:05:56;;;;;;;15.45;9.35;;;;;;;18.81;58.61;98773.19;2071729;28;20016;-46
2022/12/02 00:06:58;;;;;;;;;;;;;;;18.72;58.83;98773.31;2072381;28;20049;-48
2022/12/02 00:08:01;;;;;;;16.60;9.02;;;;;;;18.80;58.62;98768.81;2071518;28;19936;-48
2022/12/02 00:09:15;;;;;;;16.65;9.00;;;;;;;18.82;58.36;98762.22;2069862;28;20136;-46
2022/12/02 00:10:22;;;;;;;16.75;8.40;;;;;;;18.84;58.59;98770.91;2070938;28;21982;-46
2022/12/02 00:11:27;;;;;;;18.58;9.82;;;;;;;18.84;58.25;98760.16;2071620;28;20425;-46
2022/12/02 00:12:31;;;;;;;17.05;9.00;;;;;;;18.85;58.18;98767.19;2071813;28;20050;-47
2022/12/02 00:13:40;;;;;;;17.17;9.27;;;;;;;18.82;58.25;98762.22;2069761;28;20054;-46
2022/12/02 00:14:41;;;;;;;15.25;9.05;;;;;;;18.82;58.34;98764.91;2070091;28;20057;-48
2022/12/02 00:15:44;;;;;;;;;;;;;;;18.67;58.46;98764.22;2070146;28;20042;-45
2022/12/02 00:16:45;;;;;;;17.85;9.05;;;;;;;18.72;58.44;98761.72;2072577;28;19928;-48
2022/12/02 00:17:46;;;;;;;;;;;;;;;18.62;58.70;98767.47;2070465;28;20075;-48
2022/12/02 00:18:48;;;;;;;19.30;8.60;;;;;;;18.68;58.67;98760.47;2072440;28;19935;-46
2022/12/02 00:19:49;;;;;;;13.13;8.95;;;;;;;18.72;58.65;98761.72;2072165;28;20053;-48
2022/12/02 00:20:50;;;;;;;18.15;9.38;;;;;;;18.75;58.54;98761.38;2071251;28;20054;-46
2022/12/02 00:21:52;;;;;;;;;;;;;;;18.62;58.82;98767.47;2069398;28;20168;-47
2022/12/02 00:22:53;;;;;;;15.93;8.50;;;;;;;18.65;58.37;98764.38;2070438;28;20289;-47
2022/12/02 00:23:55;;;;;;;;;;;;;;;18.55;58.99;98763.94;2069179;28;20054;-49
2022/12/02 00:24:56;;;;;;;;;;;;;;;18.47;59.09;98764.09;2072484;28;19928;-48
2022/12/02 00:25:57;;;;;;;18.83;8.55;;;;;;;18.56;58.68;98762.91;2069158;28;19928;-49
2022/12/02 00:26:58;;;;;;;;;;;;;;;18.47;58.99;98770.31;2072937;28;20140;-47
2022/12/02 00:28:00;;;;;;;19.45;9.60;;;;;;;18.53;58.90;98774.88;2072218;28;19929;-48
2022/12/02 00:29:03;;;;;;;16.70;9.25;;;;;;;18.60;58.72;98760.66;2070514;28;20089;-47
2022/12/02 00:30:05;;;;;;;18.20;8.88;;;;;;;18.64;58.54;98764.59;2068584;28;20046;-49
2022/12/02 00:31:07;;;;;;;13.73;8.43;;;;;;;18.63;58.27;98763.75;2068932;28;20060;-46
2022/12/02 00:32:08;;;;;;;14.93;7.90;;;;;;;18.65;58.41;98766.25;2070432;28;20050;-48
2022/12/02 00:33:10;;;;;;;;;;;;;;;18.50;58.62;98771.78;2068623;28;20571;-47
2022/12/02 00:34:10;;;;;;;;;;;;;;;18.38;59.09;98771.50;2070587;28;19921;-47
2022/12/02 00:35:12;;;;;;;17.38;8.50;;;;;;;18.46;58.83;98774.00;2069801;28;19953;-45
2022/12/02 00:36:13;;;;;;;14.02;8.32;;;;;;;18.52;58.89;98770.53;2069888;28;20085;-46
2022/12/02 00:37:15;;;;;;;;;;;;;;;18.41;59.02;98770.25;2070839;28;20117;-48
2022/12/02 00:38:16;;;;;;;17.45;9.57;;;;;;;18.47;58.97;98770.31;2070607;28;20270;-48
2022/12/02 00:39:17;;;;;;;;;;;;;;;18.37;59.21;98775.22;2070763;28;20049;-47
2022/12/02 00:40:19;;;;;;;18.38;10.30;;;;;;;18.41;58.87;98776.47;2072088;28;20618;-46
2022/12/02 00:41:21;;;;;;;15.38;8.55;;;;;;;18.46;59.01;98768.63;2069230;28;20046;-47
2022/12/02 00:42:21;;;;;;;18.13;9.35;;;;;;;18.46;58.71;98774.00;2070417;28;20057;-47
2022/12/02 00:47:22;;;;;;;14.98;8.68;;;;;;;18.38;58.73;98776.84;2069314;28;20045;-48
2022/12/02 00:48:23;;;;;;;13.40;9.10;;;;;;;18.43;58.73;98781.66;2068053;28;20080;-45
2022/12/02 00:49:25;;;;;;;;;;;;;;;18.33;58.87;98775.81;2069200;28;20049;-47
2022/12/02 00:50:26;;;;;;;14.68;9.85;;;;;;;18.35;58.98;98774.56;2069455;28;19921;-47
2022/12/02 00:51:28;;;;;;;17.52;9.70;;;;;;;18.41;58.77;98775.63;2069319;28;20060;-47
2022/12/02 00:52:29;;;;;;;19.23;8.13;;;;;;;18.41;58.48;98770.25;2069412;28;20046;-46
2022/12/02 00:53:31;;;;;;;;;;;;;;;18.28;58.89;98771.03;2069450;28;20042;-47
2022/12/02 00:54:32;;;;;;;16.75;9.27;;;;;;;18.31;58.85;98774.16;2069990;28;19924;-48
2022/12/02 00:55:33;;;;;;;;;;;;;;;18.23;59.09;98773.47;2070155;28;20041;-48
2022/12/02 00:56:34;;;;;;;13.18;8.88;;;;;;;18.29;59.00;98772.69;2069626;28;19979;-47
2022/12/02 00:57:36;;;;;;;17.48;9.20;;;;;;;18.32;58.66;98777.66;2069666;28;20839;-46
2022/12/02 00:58:37;;;;;;;16.27;9.13;;;;;;;18.36;58.72;98772.72;2070190;28;20050;-46
2022/12/02 00:59:38;;;;;;;;;;;;;;;18.24;58.89;98775.97;2069513;28;20057;-46
2022/12/02 01:00:41;;;;;;;15.73;7.75;;;;;;;18.27;58.73;98770.19;2070031;28;19925;-46
2022/12/02 01:01:43;;;;;;;15.68;8.63;;;;;;;18.28;58.71;98769.19;2068728;28;20045;-46
2022/12/02 01:02:44;;;;;;;13.55;9.40;;;;;;;18.29;58.63;98772.69;2069595;28;20100;-47
2022/12/02 01:03:46;;;;;;;;;;;;;;;18.17;59.10;98774.28;2069555;28;20050;-47
2022/12/02 01:04:47;;;;;;;;;;;;;;;18.08;59.16;98771.75;2071214;28;19932;-46
2022/12/02 01:05:48;;;;;;;16.60;8.57;;;;;;;18.15;58.93;98776.31;2069271;28;19925;-46
2022/12/02 01:06:50;;;;;;;16.77;9.13;;;;;;;18.20;58.99;98771.19;2069336;28;20060;-50
2022/12/02 01:07:51;;;;;;;14.15;8.73;;;;;;;18.23;58.93;98773.47;2070156;28;20464;-46
2022/12/02 01:08:53;;;;;;;;;;;;;;;18.11;59.22;98767.00;2070802;28;20080;-48
2022/12/02 01:09:53;;;;;;;13.63;8.20;;;;;;;18.16;58.93;98772.59;2068919;28;19921;-47
2022/12/02 01:10:56;;;;;;;;;;;;;;;18.04;59.11;98770.47;2071447;28;20145;-46
2022/12/02 01:11:57;;;;;;;16.88;8.63;;;;;;;18.11;59.16;98767.84;2068352;28;19921;-49
2022/12/02 01:12:58;;;;;;;13.25;8.13;;;;;;;18.13;59.00;98764.94;2070189;28;20053;-46
2022/12/02 01:14:00;;;;;;;;;;;;;;;18.02;59.20;98772.50;2071192;28;20084;-46
2022/12/02 01:15:00;;;;;;;;;;;;;;;17.96;59.25;98776.00;2071715;28;20404;-46
2022/12/02 01:16:04;;;;;;;13.67;9.20;;;;;;;18.02;59.20;98779.75;2069339;28;19925;-49
2022/12/02 01:17:05;;;;;;;17.58;8.85;;;;;;;18.06;58.96;98765.75;2067268;28;21528;-47
2022/12/02 01:18:06;;;;;;;;;;;;;;;17.98;59.32;98775.81;2069156;28;20060;-47
2022/12/02 01:19:08;;;;;;;;;;;;;;;17.90;59.57;98774.09;2070539;28;19929;-48
2022/12/02 01:20:09;;;;;;;;;;;;;;;17.84;59.75;98769.50;2070619;28;19925;-46
2022/12/02 01:21:11;;;;;;;20.02;8.63;;;;;;;17.92;59.35;98772.06;2068772;28;20336;-46
2022/12/02 01:22:11;;;;;;;15.07;8.77;;;;;;;18.00;59.11;98771.91;2070066;28;20054;-47
2022/12/02 01:23:13;;;;;;;;;;;;;;;17.91;59.20;98775.75;2071683;28;20060;-46
2022/12/02 01:24:14;;;;;;;;;;;;;;;17.85;59.55;98766.63;2070271;28;19955;-46
2022/12/02 01:25:16;;;;;;;13.45;8.00;;;;;;;17.90;59.33;98774.09;2070035;28;19922;-46
2022/12/02 01:26:16;;;;;;;15.60;9.35;;;;;;;17.95;59.09;98778.88;2069910;28;20371;-45
2022/12/02 01:27:18;;;;;;;;;;;;;;;17.87;59.48;98774.47;2071109;28;20081;-48
2022/12/02 01:28:19;;;;;;;20.27;8.70;;;;;;;17.90;59.39;98779.47;2069690;28;20289;-49
2022/12/02 01:29:20;;;;;;;;;;;;;;;17.82;59.35;98779.59;2071032;28;20050;-46
2022/12/02 01:30:21;;;;;;;14.07;8.10;;;;;;;17.86;59.07;98781.72;2069764;28;19922;-46
2022/12/02 01:31:24;;;;;;;;;;;;;;;17.80;59.63;98784.31;2070782;28;20053;-46
2022/12/02 01:32:25;;;;;;;17.67;8.05;;;;;;;17.88;59.39;98781.50;2068723;28;19922;-46
2022/12/02 01:33:27;;;;;;;15.32;8.43;;;;;;;17.92;59.12;98781.97;2070050;28;20160;-46
2022/12/02 01:34:28;;;;;;;11.40;7.25;;;;;;;17.93;59.21;98781.75;2070999;28;20049;-45
2022/12/02 01:35:30;;;;;;;;;;;;;;;17.83;59.11;98783.97;2068592;28;20104;-49
2022/12/02 01:36:30;;;;;;;13.48;7.63;;;;;;;17.85;59.27;98781.91;2069400;28;19922;-47
2022/12/02 01:37:32;;;;;;;17.73;8.90;;;;;;;17.88;59.21;98786.88;2068523;28;20719;-46
2022/12/02 01:38:33;;;;;;;17.02;9.15;;;;;;;17.89;59.03;98782.34;2069469;28;20041;-48
2022/12/02 01:39:35;;;;;;;;;;;;;;;17.77;59.37;98790.88;2070374;28;20259;-46
2022/12/02 01:40:35;;;;;;;;;;;;;;;17.69;59.55;98788.38;2069949;28;19929;-48
2022/12/02 01:41:37;;;;;;;13.77;8.27;;;;;;;17.75;59.54;98786.75;2066568;28;20070;-46
2022/12/02 01:42:39;;;;;;;13.75;8.95;;;;;;;17.80;59.33;98781.63;2066310;28;20050;-45
2022/12/02 01:43:41;;;;;;;12.18;8.32;;;;;;;17.83;59.12;98787.47;2068139;28;20049;-48
2022/12/02 01:44:42;;;;;;;12.57;7.93;;;;;;;17.83;59.12;98779.44;2068979;28;20145;-47
2022/12/02 01:45:43;;;;;;;;;;;;;;;17.72;59.31;98781.75;2070121;28;20516;-47
2022/12/02 01:46:46;;;;;;;15.73;7.90;;;;;;;17.75;59.26;98786.75;2063694;28;20448;-47
2022/12/02 01:47:48;;;;;;;13.98;8.10;;;;;;;17.77;59.10;98790.88;2065147;28;20082;-49
2022/12/02 01:48:49;;;;;;;14.32;8.00;;;;;;;17.80;59.11;98782.50;2067140;28;20049;-46
2022/12/02 01:49:51;;;;;;;;;;;;;;;17.67;59.19;98779.66;2069577;28;20060;-48
2022/12/02 01:50:52;;;;;;;15.02;8.25;;;;;;;17.70;59.39;98791.88;2072936;28;19925;-45
2022/12/02 01:51:54;;;;;;;;;;;;;;;17.62;59.56;98787.47;2069219;28;20536;-46
2022/12/02 01:52:54;;;;;;;16.55;7.35;;;;;;;17.71;59.37;98791.66;2069657;28;19925;-45
2022/12/02 01:53:56;;;;;;;;;;;;;;;17.67;59.29;98789.56;2073352;28;20052;-47
2022/12/02 01:54:57;;;;;;;;;;;;;;;17.65;59.57;98797.81;2069852;28;21602;-47
2022/12/02 01:55:58;;;;;;;11.50;7.72;;;;;;;17.73;59.48;98792.31;2070769;28;19925;-46
2022/12/02 01:56:59;;;;;;;13.57;8.13;;;;;;;17.83;59.09;98790.16;2070513;28;20080;-46
2022/12/02 01:58:01;;;;;;;;;;;;;;;17.77;59.14;98793.56;2070167;28;20053;-47
2022/12/02 01:59:02;;;;;;;16.15;8.25;;;;;;;17.83;58.98;98786.66;2070881;28;19932;-45
2022/12/02 02:00:04;;;;;;;;;;;;;;;17.79;59.07;98782.69;2071598;28;20060;-48
2022/12/02 02:01:22;;;;;;;15.27;7.28;;;;;;;17.84;59.15;98785.63;2070035;28;19984;-45
2022/12/02 02:02:29;;;;;;;12.70;8.10;;;;;;;17.89;58.87;98791.22;2068761;28;20046;-47
2022/12/02 02:03:31;;;;;;;15.88;7.88;;;;;;;17.92;58.78;98785.47;2069561;28;20073;-48
2022/12/02 02:04:32;;;;;;;15.95;8.57;;;;;;;17.93;58.76;98784.44;2070537;28;20163;-47
2022/12/02 02:05:34;;;;;;;;;;;;;;;17.84;58.92;98785.63;2062502;28;20057;-49
2022/12/02 02:06:38;;;;;;;12.13;7.25;;;;;;;17.91;58.80;98783.78;2068421;28;20732;-47
2022/12/02 02:07:42;;;;;;;11.50;6.97;;;;;;;17.94;58.84;98785.25;2071390;28;20102;-48
2022/12/02 02:08:43;;;;;;;14.18;7.80;;;;;;;17.97;58.66;98780.34;2070831;28;20171;-48
2022/12/02 02:09:44;;;;;;;;;;;;;;;17.89;58.77;98791.22;2071685;28;20049;-47
2022/12/02 02:10:46;;;;;;;12.68;7.43;;;;;;;17.93;59.08;98791.66;2072260;28;20547;-46
2022/12/02 02:11:48;;;;;;;13.85;7.22;;;;;;;17.96;58.77;98784.03;2068924;28;20730;-47
2022/12/02 02:12:50;;;;;;;14.57;7.88;;;;;;;18.00;58.68;98788.00;2070263;28;20662;-46
2022/12/02 02:13:53;;;;;;;13.20;7.03;;;;;;;18.01;58.67;98786.16;2071963;28;20049;-46
2022/12/02 02:14:54;;;;;;;10.77;6.80;;;;;;;18.01;58.67;98786.16;2071427;28;20433;-47
2022/12/02 02:15:56;;;;;;;15.23;8.10;;;;;;;18.01;58.55;98786.97;2069865;28;20054;-46
2022/12/02 02:16:57;;;;;;;16.05;8.43;;;;;;;18.01;58.49;98784.28;2071337;28;20068;-46
2022/12/02 02:18:00;;;;;;;;;;;;;;;17.94;58.76;98786.13;2061373;28;20124;-47
2022/12/02 02:19:02;;;;;;;11.35;7.03;;;;;;;17.97;58.89;98788.41;2071352;28;20274;-46
2022/12/02 02:20:07;;;;;;;12.45;7.35;;;;;;;17.99;58.61;98782.81;2069523;28;20049;-47
2022/12/02 02:21:17;;;;;;;11.82;7.03;;;;;;;18.01;58.47;98786.16;2070025;28;20057;-46
2022/12/02 02:22:24;;;;;;;14.90;8.18;;;;;;;18.02;58.40;98777.88;2068477;28;20050;-47
2022/12/02 02:23:27;;;;;;;13.98;7.85;;;;;;;18.03;58.44;98779.56;2068907;28;20046;-48
2022/12/02 02:24:29;;;;;;;10.95;7.13;;;;;;;18.03;58.63;98782.25;2070753;28;20065;-45
2022/12/02 02:25:31;;;;;;;11.90;6.75;;;;;;;18.05;58.45;98785.56;2070752;28;20060;-50
2022/12/02 02:26:33;;;;;;;16.35;7.15;;;;;;;18.03;58.71;98779.56;2068785;28;20082;-47
2022/12/02 02:27:34;;;;;;;9.55;6.50;;;;;;;18.03;58.39;98776.88;2069447;28;20494;-46
2022/12/02 02:28:35;;;;;;;;;;;;;;;17.97;58.53;98779.50;2065815;28;20049;-44
2022/12/02 02:29:36;;;;;;;10.77;6.63;;;;;;;17.94;58.64;98775.38;2071021;28;19929;-45
2022/12/02 02:30:38;;;;;;;;;;;;;;;17.88;58.86;98778.81;2068556;28;20699;-46
2022/12/02 02:31:39;;;;;;;13.25;6.82;;;;;;;17.93;58.79;98779.06;2070163;28;19925;-45
2022/12/02 02:32:40;;;;;;;;;;;;;;;17.84;58.92;98777.56;2069153;28;20060;-47
2022/12/02 02:33:41;;;;;;;12.07;7.32;;;;;;;17.89;59.01;98777.81;2068853;28;19925;-49
2022/12/02 02:34:43;;;;;;;;;;;;;;;17.83;58.93;98773.22;2068171;28;20434;-48
2022/12/02 02:35:45;;;;;;;9.95;5.68;;;;;;;17.89;58.90;98772.44;2070715;28;19925;-46
2022/12/02 02:36:47;;;;;;;15.05;7.78;;;;;;;17.94;58.87;98778.06;2068109;28;20050;-48
2022/12/02 02:37:51;;;;;;;14.63;7.55;;;;;;;17.96;58.80;98778.66;2070261;28;20077;-46
2022/12/02 02:38:54;;;;;;;11.52;6.63;;;;;;;18.00;58.50;98781.81;2068790;28;20049;-46
2022/12/02 02:39:56;;;;;;;12.13;7.43;;;;;;;17.99;58.51;98782.81;2072466;28;20049;-45
2022/12/02 02:40:58;;;;;;;15.25;7.72;;;;;;;17.98;58.42;98781.19;2070462;28;20171;-47
2022/12/02 02:41:59;;;;;;;9.45;6.60;;;;;;;17.99;58.46;98772.09;2070478;28;20139;-45
2022/12/02 02:43:02;;;;;;;;;;;;;;;17.85;58.69;98772.00;2071983;28;20045;-46
2022/12/02 02:44:04;;;;;;;11.70;6.82;;;;;;;17.91;58.77;98774.91;2073267;28;19925;-44
2022/12/02 02:45:07;;;;;;;12.65;7.22;;;;;;;17.93;58.70;98776.38;2071809;28;20060;-46
2022/12/02 02:46:09;;;;;;;12.90;7.60;;;;;;;17.92;58.52;98766.69;2069825;28;20119;-47
2022/12/02 02:47:11;;;;;;;11.65;6.70;;;;;;;17.96;58.55;98773.31;2069035;28;20045;-47
2022/12/02 02:48:13;;;;;;;11.32;6.57;;;;;;;17.96;58.68;98772.47;2071142;28;20053;-46
2022/12/02 02:49:16;;;;;;;11.95;6.82;;;;;;;17.96;58.50;98773.31;2071222;28;20045;-45
2022/12/02 02:50:17;;;;;;;14.82;7.50;;;;;;;17.95;58.51;98770.84;2069922;28;20049;-46
2022/12/02 02:51:19;;;;;;;10.93;7.07;;;;;;;17.93;58.56;98771.00;2069572;28;20575;-44
2022/12/02 02:52:20;;;;;;;11.88;6.82;;;;;;;17.91;58.51;98765.00;2072689;28;20045;-46
2022/12/02 02:53:23;;;;;;;;;;;;;;;17.82;58.58;98764.34;2071630;28;20046;-47
2022/12/02 02:54:26;;;;;;;11.07;7.53;;;;;;;17.85;58.75;98772.00;2071143;28;19925;-46
2022/12/02 02:55:28;;;;;;;12.57;6.53;;;;;;;17.87;58.68;98763.75;2070023;28;20874;-45
2022/12/02 02:56:29;;;;;;;11.43;5.97;;;;;;;17.87;58.70;98771.81;2072336;28;20058;-52
2022/12/02 02:57:31;;;;;;;;;;;;;;;17.77;58.96;98773.97;2071798;28;20052;-48
2022/12/02 02:58:33;;;;;;;9.77;7.07;;;;;;;17.81;58.79;98770.72;2071879;28;19928;-48
2022/12/02 02:59:35;;;;;;;14.63;7.45;;;;;;;17.86;58.60;98767.47;2068820;28;20704;-47
2022/12/02 03:00:37;;;;;;;11.23;6.38;;;;;;;17.86;58.62;98767.47;2069004;28;20057;-46
2022/12/02 03:01:39;;;;;;;12.15;6.18;;;;;;;17.88;58.46;98769.94;2070269;28;20068;-45
2022/12/02 03:02:43;;;;;;;11.40;7.07;;;;;;;17.89;58.50;98768.94;2073306;28;20426;-49
2022/12/02 03:03:48;;;;;;;13.85;7.47;;;;;;;17.90;58.52;98765.22;2072169;28;20136;-45
2022/12/02 03:04:49;;;;;;;13.43;7.18;;;;;;;17.88;58.47;98770.78;2069994;28;20910;-47
2022/12/02 03:05:53;;;;;;;11.10;6.25;;;;;;;17.88;58.38;98765.41;2072352;28;20072;-50
2022/12/02 03:06:54;;;;;;;14.73;6.82;;;;;;;17.86;58.42;98768.28;2070832;28;20468;-46
2022/12/02 03:07:56;;;;;;;;;;;;;;;17.74;58.58;98761.75;2072966;28;20050;-47
2022/12/02 03:08:57;;;;;;;;;;;;;;;17.66;58.90;98772.63;2073814;28;19944;-46
2022/12/02 03:10:01;;;;;;;10.25;6.00;;;;;;;17.71;58.82;98767.50;2073691;28;19925;-47
2022/12/02 03:11:03;;;;;;;11.27;6.60;;;;;;;17.73;58.84;98768.16;2073706;28;20065;-46
2022/12/02 03:12:05;;;;;;;13.00;6.45;;;;;;;17.74;58.73;98761.75;2073248;28;20045;-50
2022/12/02 03:13:07;;;;;;;11.30;6.18;;;;;;;17.79;58.71;98761.22;2071670;28;20080;-48
2022/12/02 03:14:12;;;;;;;8.35;6.22;;;;;;;17.79;58.45;98761.22;2071103;28;20049;-47
2022/12/02 03:15:13;;;;;;;11.95;7.13;;;;;;;17.75;58.61;98760.75;2069220;28;20050;-47
2022/12/02 03:16:19;;;;;;;10.23;5.50;;;;;;;17.76;58.76;98764.25;2069829;28;20560;-48
2022/12/02 03:17:20;;;;;;;10.18;6.97;;;;;;;17.74;58.67;98767.13;2068940;28;20935;-49
2022/12/02 03:18:21;;;;;;;;;;;;;;;17.63;58.91;98763.16;2070799;28;20049;-47
2022/12/02 03:19:22;;;;;;;11.23;6.25;;;;;;;17.67;58.74;98760.91;2070297;28;19928;-48
2022/12/02 03:20:25;;;;;;;10.43;6.50;;;;;;;17.70;58.74;98765.03;2071289;28;22119;-47
2022/12/02 03:21:26;;;;;;;10.73;6.55;;;;;;;17.70;58.70;98760.50;2071929;28;20053;-46
2022/12/02 03:22:29;;;;;;;12.88;6.40;;;;;;;17.71;58.73;98767.50;2069170;28;20046;-45
2022/12/02 03:23:31;;;;;;;11.50;7.05;;;;;;;17.71;58.72;98758.66;2069068;28;20552;-47
2022/12/02 03:24:34;;;;;;;10.88;6.50;;;;;;;17.69;58.66;98758.00;2069556;28;20049;-45
2022/12/02 03:25:36;;;;;;;11.48;6.60;;;;;;;17.69;58.58;98758.84;2069575;28;20169;-46
2022/12/02 03:26:40;;;;;;;10.95;6.30;;;;;;;17.69;58.63;98755.31;2068144;28;20753;-46
2022/12/02 03:27:41;;;;;;;12.77;6.63;;;;;;;17.65;58.70;98755.72;2067940;28;20064;-46
2022/12/02 03:28:42;;;;;;;;;;;;;;;17.51;58.99;98753.94;2069927;28;20053;-47
2022/12/02 03:29:44;;;;;;;10.43;6.40;;;;;;;17.53;59.00;98754.59;2073613;28;19921;-51
2022/12/02 03:30:46;;;;;;;10.35;6.20;;;;;;;17.59;59.07;98748.44;2067078;28;20057;-50
2022/12/02 03:31:47;;;;;;;11.38;6.97;;;;;;;17.58;59.00;98743.28;2069927;28;20060;-45
2022/12/02 03:32:48;;;;;;;;;;;;;;;17.46;59.25;98751.00;2070459;28;20513;-48
2022/12/02 03:33:50;;;;;;;12.77;7.28;;;;;;;17.47;59.14;98746.47;2070132;28;19929;-46
2022/12/02 03:34:51;;;;;;;9.88;6.47;;;;;;;17.53;58.96;98751.91;2068990;28;20137;-45
2022/12/02 03:35:52;;;;;;;10.70;6.40;;;;;;;17.56;58.93;98743.47;2069307;28;20639;-47
2022/12/02 03:36:54;;;;;;;;;;;;;;;17.43;59.20;98751.41;2068603;28;20057;-47
2022/12/02 03:37:55;;;;;;;9.98;6.38;;;;;;;17.46;59.07;98748.34;2069402;28;20471;-45
2022/12/02 03:38:57;;;;;;;;;;;;;;;17.35;59.26;98744.31;2070343;28;20145;-46
2022/12/02 03:39:58;;;;;;;12.07;6.28;;;;;;;17.42;59.23;98750.56;2070186;28;19921;-49
2022/12/02 03:41:01;;;;;;;;;;;;;;;17.32;59.55;98743.88;2069847;28;20572;-47
2022/12/02 03:42:03;;;;;;;10.45;5.63;;;;;;;17.37;59.42;98744.13;2070524;28;19928;-50
2022/12/02 03:43:05;;;;;;;8.98;5.57;;;;;;;17.44;59.03;98747.72;2069684;28;20494;-46
2022/12/02 03:44:06;;;;;;;8.88;5.68;;;;;;;17.45;59.04;98740.50;2071353;28;20060;-48
2022/12/02 03:45:09;;;;;;;;;;;;;;;17.34;59.43;98741.84;2069121;28;20053;-46
2022/12/02 03:46:10;;;;;;;10.10;5.78;;;;;;;17.39;59.36;98748.28;2070194;28;19925;-45
2022/12/02 03:47:13;;;;;;;8.85;5.50;;;;;;;17.41;59.16;98742.72;2067745;28;20502;-50
2022/12/02 03:48:19;;;;;;;10.70;6.22;;;;;;;17.40;59.23;98744.56;2072116;28;20041;-46
2022/12/02 03:49:22;;;;;;;12.07;7.13;;;;;;;17.43;59.05;98741.50;2070537;28;20061;-46
2022/12/02 03:50:22;;;;;;;11.35;5.97;;;;;;;17.46;58.90;98742.97;2068134;28;20070;-50
2022/12/02 03:51:24;;;;;;;;;;;;;;;17.35;59.07;98738.94;2069428;28;20061;-46
2022/12/02 03:52:27;;;;;;;12.85;6.50;;;;;;;17.42;59.03;98741.72;2069672;28;19921;-47
2022/12/02 03:53:30;;;;;;;10.52;5.40;;;;;;;17.46;58.93;98742.97;2069451;28;20046;-44
2022/12/02 03:54:31;;;;;;;11.73;7.15;;;;;;;17.51;58.74;98743.22;2062377;28;20056;-47
2022/12/02 03:55:33;;;;;;;;;;;;;;;17.42;59.13;98739.03;2066095;28;20053;-46
2022/12/02 03:56:37;;;;;;;;;;;;;;;17.36;59.22;98739.81;2069820;28;19929;-45
2022/12/02 03:57:39;;;;;;;11.63;5.53;;;;;;;17.41;59.16;98735.53;2068043;28;20037;-46
2022/12/02 03:58:46;;;;;;;9.70;5.72;;;;;;;17.50;58.90;98743.44;2069510;28;20061;-49
2022/12/02 03:59:47;;;;;;;9.70;5.00;;;;;;;17.54;58.78;98740.16;2069790;28;20049;-47
2022/12/02 04:00:48;;;;;;;8.43;5.65;;;;;;;17.57;58.60;98737.06;2066953;28;20910;-48
2022/12/02 04:01:50;;;;;;;;;;;;;;;17.49;58.87;98734.53;2069968;28;20054;-47
2022/12/02 04:02:50;;;;;;;;;;;;;;;17.37;59.16;98739.59;2068955;28;19929;-46
2022/12/02 04:03:52;;;;;;;9.80;5.57;;;;;;;17.44;59.04;98745.03;2069228;28;19968;-48
2022/12/02 04:04:53;;;;;;;11.35;6.43;;;;;;;17.51;58.93;98742.41;2069208;28;20056;-46
2022/12/02 04:05:55;;;;;;;;;;;;;;;17.42;59.04;98734.50;2071094;28;20506;-48
2022/12/02 04:06:55;;;;;;;;;;;;;;;17.35;59.13;98733.59;2068390;28;19925;-48
2022/12/02 04:07:57;;;;;;;12.10;4.70;;;;;;;17.42;59.13;98741.72;2068235;28;19925;-47
2022/12/02 04:08:58;;;;;;;9.65;5.80;;;;;;;17.50;58.84;98735.38;2068323;28;20061;-47
2022/12/02 04:10:00;;;;;;;;;;;;;;;17.41;59.10;98732.00;2072112;28;20563;-46
2022/12/02 04:11:01;;;;;;;7.55;4.68;;;;;;;17.47;58.88;98741.97;2070230;28;19928;-50
2022/12/02 04:12:04;;;;;;;;;;;;;;;17.39;59.03;98739.41;2069839;28;20654;-44
2022/12/02 04:13:04;;;;;;;8.18;5.85;;;;;;;17.46;58.98;98739.47;2071467;28;19930;-45
2022/12/02 04:14:06;;;;;;;;;;;;;;;17.40;59.07;98736.53;2069985;28;20054;-48
2022/12/02 04:15:08;;;;;;;12.40;6.78;;;;;;;17.45;58.95;98737.81;2071007;28;19925;-46
2022/12/02 04:16:10;;;;;;;8.57;5.53;;;;;;;17.50;58.79;98736.22;2071249;28;20123;-49
2022/12/02 04:17:11;;;;;;;8.43;5.20;;;;;;;17.52;58.73;98727.97;2068617;28;20053;-47
2022/12/02 04:18:12;;;;;;;;;;;;;;;17.43;58.96;98730.78;2069774;28;20055;-46
2022/12/02 04:19:14;;;;;;;7.38;4.68;;;;;;;17.48;58.88;98732.88;2068005;28;20815;-47
2022/12/02 04:20:16;;;;;;;8.85;5.43;;;;;;;17.50;58.68;98733.53;2068698;28;20060;-47
2022/12/02 04:21:17;;;;;;;7.97;5.63;;;;;;;17.51;58.63;98727.13;2067954;28;20060;-49
2022/12/02 04:22:18;;;;;;;;;;;;;;;17.42;59.11;98736.34;2071713;28;20414;-46
2022/12/02 04:23:19;;;;;;;;;;;;;;;17.34;59.00;98742.66;2068673;28;19944;-47
2022/12/02 04:24:20;;;;;;;10.37;4.80;;;;;;;17.39;59.00;98732.19;2068738;28;19940;-45
2022/12/02 04:25:21;;;;;;;10.95;5.93;;;;;;;17.44;58.87;98731.63;2067614;28;20128;-46
2022/12/02 04:26:23;;;;;;;;;;;;;;;17.37;58.98;98733.41;2071423;28;20164;-47
2022/12/02 04:27:25;;;;;;;7.28;4.65;;;;;;;17.42;58.89;98733.66;2069965;28;20380;-47
2022/12/02 04:28:28;;;;;;;11.85;6.72;;;;;;;17.45;58.74;98730.59;2068616;28;20157;-49
2022/12/02 04:29:28;;;;;;;7.45;5.05;;;;;;;17.46;58.79;98723.38;2070892;28;20499;-48
2022/12/02 04:30:30;;;;;;;;;;;;;;;17.38;58.79;98716.28;2070060;28;20061;-47
2022/12/02 04:31:30;;;;;;;;;;;;;;;17.28;59.34;98724.69;2068929;28;19936;-47
2022/12/02 04:32:32;;;;;;;7.47;4.87;;;;;;;17.34;59.10;98723.06;2061429;28;19921;-46
2022/12/02 04:33:33;;;;;;;9.55;5.25;;;;;;;17.38;59.00;98722.50;2069809;28;20053;-44
2022/12/02 04:34:35;;;;;;;9.73;6.40;;;;;;;17.42;58.64;98722.94;2069769;28;22128;-48
2022/12/02 04:35:36;;;;;;;10.68;6.05;;;;;;;17.43;58.72;98725.41;2068308;28;20054;-47
2022/12/02 04:36:38;;;;;;;;;;;;;;;17.32;58.90;98720.56;2069638;28;20425;-45
2022/12/02 04:37:39;;;;;;;9.55;5.30;;;;;;;17.35;59.01;98725.53;2067422;28;19925;-49
2022/12/02 04:38:40;;;;;;;;;;;;;;;17.25;59.13;98726.91;2071503;28;20046;-46
2022/12/02 04:39:41;;;;;;;;;;;;;;;17.18;59.50;98726.84;2068898;28;20378;-45
2022/12/02 04:40:43;;;;;;;10.18;5.53;;;;;;;17.27;59.22;98727.53;2070289;28;19960;-47
2022/12/02 04:41:44;;;;;;;9.35;5.53;;;;;;;17.30;58.96;98732.50;2069530;28;20041;-48
2022/12/02 04:42:47;;;;;;;;;;;;;;;17.25;59.16;98730.44;2068919;28;20050;-45
2022/12/02 04:43:48;;;;;;;9.25;4.97;;;;;;;17.30;59.17;98732.50;2070291;28;19921;-44
2022/12/02 04:44:49;;;;;;;;;;;;;;;17.23;59.30;98726.28;2069760;28;20060;-45
2022/12/02 04:45:50;;;;;;;10.23;5.43;;;;;;;17.25;59.22;98732.28;2069648;28;19921;-46
2022/12/02 04:46:52;;;;;;;;;;;;;;;17.18;59.28;98730.34;2070457;28;20063;-45
2022/12/02 04:47:52;;;;;;;7.07;5.07;;;;;;;17.24;59.18;98726.06;2068312;28;19921;-46
2022/12/02 04:48:54;;;;;;;;;;;;;;;17.18;59.37;98732.19;2072971;28;20055;-45
2022/12/02 04:49:55;;;;;;;8.85;4.93;;;;;;;17.24;59.26;98733.28;2069012;28;19929;-47
2022/12/02 04:50:56;;;;;;;;;;;;;;;17.17;59.36;98735.91;2072194;28;20060;-45
2022/12/02 04:51:58;;;;;;;7.75;4.40;;;;;;;17.22;59.30;98732.63;2071424;28;19921;-45
2022/12/02 04:53:00;;;;;;;9.70;5.30;;;;;;;17.27;58.98;98735.56;2070600;28;20494;-50
2022/12/02 04:54:01;;;;;;;7.63;6.13;;;;;;;17.29;58.96;98730.88;2069675;28;20077;-45
2022/12/02 04:55:02;;;;;;;;;;;;;;;17.19;59.25;98733.88;2070894;28;20496;-46
2022/12/02 04:56:03;;;;;;;9.88;5.68;;;;;;;17.19;59.21;98732.03;2070248;28;20512;-48
2022/12/02 04:57:05;;;;;;;7.85;5.38;;;;;;;17.23;59.19;98737.00;2070276;28;20852;-48
2022/12/02 04:58:08;;;;;;;7.68;4.82;;;;;;;17.25;59.06;98733.09;2069614;28;20060;-45
2022/12/02 04:59:10;;;;;;;9.20;4.63;;;;;;;17.24;59.11;98736.78;2069094;28;20072;-45
2022/12/02 05:00:12;;;;;;;8.95;5.68;;;;;;;17.24;59.10;98731.44;2068933;28;20126;-47
2022/12/02 05:01:13;;;;;;;8.40;5.10;;;;;;;17.27;59.06;98730.22;2069933;28;20824;-47
2022/12/02 05:02:14;;;;;;;7.78;4.68;;;;;;;17.25;59.01;98734.97;2071140;28;20045;-46